Terminal Aerodrome Forecast
Issued by NWS

Current Version | Previous Version | Text Only | Print | Product List | Glossary On
Versions: 1 2 3 4 5 6 7 8 9 10 11 12 13 14 15 16 17 18 19 20 21 22 23 24 25 26 27 28 29 30 31
395
FTUS43 KDLH 111126 AAC
TAFHYR
TAF AMD
KHYR 111126Z 1111/1212 18005KT P6SM -SN SCT007 OVC010
     FM111800 34008G15KT P6SM -SN OVC015
     FM112000 34011G23KT P6SM -SN BKN020
     FM120200 34009G17KT P6SM SCT025
     FM120600 32007KT P6SM SCT015=

USA.gov is the U.S. government's official web portal to all federal, state and local government web resources and services.